Terminal Aerodrome Forecast
Issued by NWS Topeka, KS

Home | Current Version | Previous Version | Text Only | Print | Product List | Glossary On
Versions: 1 2 3 4 5 6 7 8 9 10 11 12 13 14 15 16 17
000
FTUS43 KTOP 052300
TAFTOP
TAF
KTOP 052334Z 0600/0624 15005KT P6SM SKC
     FM060700 19007KT P6SM SCT120 WS008/23040KT
     FM061400 24010KT P6SM SKC=

USA.gov is the U.S. government's official web portal to all federal, state and local government web resources and services.